Time;durP1;ratioP1;P1;durP2;ratioP2;P2;SDS_P1;SDS_P2;PMS_P1;PMS_P2;Temp;Humidity;BMP_temperature;BMP_pressure;BME280_temperature;BME280_humidity;BME280_pressure;Samples;Min_cycle;Max_cycle;Signal;HPM_P1;HPM_P2
2022/01/28 00:02:38;;;;;;;18.30;11.05;;;;;;;;;;4997114;28;20037;-69
2022/01/28 00:05:01;;;;;;;19.25;11.48;;;;;;;;;;4978440;28;20214;-69
2022/01/28 00:07:28;;;;;;;16.02;10.55;;;;;;;;;;4983605;28;20030;-69
2022/01/28 00:09:54;;;;;;;22.25;12.77;;;;;;;;;;4977784;28;20070;-69
2022/01/28 00:12:20;;;;;;;22.58;12.80;;;;;;;;;;4980578;28;20038;-70
2022/01/28 00:15:32;;;;;;;19.90;11.70;;;;;;;;;;4984303;28;20018;-70
2022/01/28 00:39:19;;;;;;;22.00;12.60;;;;;;;;;;4977990;28;20445;-69
2022/01/28 00:41:45;;;;;;;19.95;12.27;;;;;;;;;;4983494;28;20117;-69
2022/01/28 00:44:11;;;;;;;16.55;12.40;;;;;;;;;;4981034;28;20062;-69
2022/01/28 00:46:37;;;;;;;16.52;10.70;;;;;;;;;;4984520;28;20034;-69
2022/01/28 00:49:03;;;;;;;17.55;11.10;;;;;;;;;;4985610;28;20066;-69
2022/01/28 00:51:29;;;;;;;16.65;10.45;;;;;;;;;;4985589;28;20465;-69
2022/01/28 00:53:55;;;;;;;15.77;11.07;;;;;;;;;;4985158;28;20030;-70
2022/01/28 00:56:21;;;;;;;18.35;11.18;;;;;;;;;;4984103;28;20097;-70
2022/01/28 00:58:48;;;;;;;17.17;10.80;;;;;;;;;;4979751;28;20027;-71
2022/01/28 01:01:14;;;;;;;14.77;10.80;;;;;;;;;;4987021;28;20027;-68
2022/01/28 01:03:41;;;;;;;16.25;12.35;;;;;;;;;;4988438;28;20523;-69
2022/01/28 01:06:07;;;;;;;18.70;10.93;;;;;;;;;;4982375;28;20448;-69
2022/01/28 01:08:33;;;;;;;21.15;10.80;;;;;;;;;;4988828;28;20122;-69
2022/01/28 01:10:59;;;;;;;17.52;10.85;;;;;;;;;;4997359;28;20066;-70
2022/01/28 01:13:25;;;;;;;17.23;11.68;;;;;;;;;;4996145;28;20061;-70
2022/01/28 01:15:56;;;;;;;17.48;11.38;;;;;;;;;;4993906;28;20034;-70
2022/01/28 01:18:39;;;;;;;17.20;10.68;;;;;;;;;;4987958;28;20724;-69
2022/01/28 01:21:14;;;;;;;17.27;10.70;;;;;;;;;;4987042;28;20109;-70
2022/01/28 01:23:49;;;;;;;18.15;11.13;;;;;;;;;;4984967;28;20038;-69
2022/01/28 01:26:15;;;;;;;16.40;10.40;;;;;;;;;;4985028;28;20054;-69
2022/01/28 01:28:42;;;;;;;13.63;10.00;;;;;;;;;;4979843;28;20027;-68
2022/01/28 01:31:12;;;;;;;15.27;11.15;;;;;;;;;;4988159;28;20532;-70
2022/01/28 01:33:44;;;;;;;14.55;10.00;;;;;;;;;;4983084;28;20110;-69
2022/01/28 01:36:10;;;;;;;14.35;10.77;;;;;;;;;;4985728;28;20034;-70
2022/01/28 01:38:39;;;;;;;15.05;10.45;;;;;;;;;;4986663;28;20018;-69
2022/01/28 01:41:10;;;;;;;17.00;10.07;;;;;;;;;;4989844;28;20117;-68
2022/01/28 01:46:37;;;;;;;16.17;10.13;;;;;;;;;;4986329;28;20066;-69
2022/01/28 01:52:03;;;;;;;16.20;9.73;;;;;;;;;;4986073;28;19925;-70
2022/01/28 01:54:37;;;;;;;15.70;9.77;;;;;;;;;;4984594;28;20027;-69
2022/01/28 01:57:03;;;;;;;17.52;10.25;;;;;;;;;;4982033;28;20026;-69
2022/01/28 01:59:30;;;;;;;15.25;9.20;;;;;;;;;;4987608;28;20149;-69
2022/01/28 02:01:56;;;;;;;17.13;9.85;;;;;;;;;;4982496;28;20042;-69
2022/01/28 02:04:22;;;;;;;20.02;9.85;;;;;;;;;;4983416;28;20038;-69
2022/01/28 02:06:50;;;;;;;24.90;11.98;;;;;;;;;;5001170;28;20382;-69
2022/01/28 02:09:16;;;;;;;38.80;17.25;;;;;;;;;;4987307;28;20041;-71
2022/01/28 02:11:42;;;;;;;35.53;17.20;;;;;;;;;;4983158;28;20038;-69
2022/01/28 02:14:09;;;;;;;35.15;18.40;;;;;;;;;;4983180;28;20076;-69
2022/01/28 02:16:35;;;;;;;27.52;17.05;;;;;;;;;;4982112;28;20037;-69
2022/01/28 02:19:01;;;;;;;29.95;14.75;;;;;;;;;;4995677;28;20027;-69
2022/01/28 02:21:27;;;;;;;21.45;12.00;;;;;;;;;;5001185;28;20053;-69
2022/01/28 02:24:00;;;;;;;25.25;11.95;;;;;;;;;;4982178;28;20026;-70
2022/01/28 02:26:26;;;;;;;16.60;10.02;;;;;;;;;;4983181;28;20030;-68
2022/01/28 02:28:56;;;;;;;14.95;9.98;;;;;;;;;;4988627;28;20084;-70
2022/01/28 02:31:25;;;;;;;13.55;9.63;;;;;;;;;;4988078;28;20023;-70
2022/01/28 02:33:55;;;;;;;17.17;10.30;;;;;;;;;;4986633;28;20105;-69
2022/01/28 02:36:21;;;;;;;13.70;9.40;;;;;;;;;;4990103;28;20857;-68
2022/01/28 02:38:47;;;;;;;12.85;8.55;;;;;;;;;;4990576;28;20108;-69
2022/01/28 02:41:14;;;;;;;19.33;9.15;;;;;;;;;;4984052;28;20034;-69
2022/01/28 02:43:57;;;;;;;17.20;10.30;;;;;;;;;;4979410;28;20034;-69
2022/01/28 02:46:26;;;;;;;19.48;11.20;;;;;;;;;;4982105;28;20031;-69
2022/01/28 02:49:00;;;;;;;20.40;12.77;;;;;;;;;;4987804;28;20045;-69
2022/01/28 02:51:26;;;;;;;17.98;11.30;;;;;;;;;;4980816;28;20065;-68
2022/01/28 02:53:56;;;;;;;21.00;13.10;;;;;;;;;;4998094;28;21446;-69
2022/01/28 02:56:33;;;;;;;20.05;12.70;;;;;;;;;;4981482;28;20038;-68
2022/01/28 02:58:59;;;;;;;15.07;11.32;;;;;;;;;;4995963;28;20014;-69
2022/01/28 03:01:25;;;;;;;15.32;10.40;;;;;;;;;;4984243;28;20034;-68
2022/01/28 03:03:54;;;;;;;18.20;10.10;;;;;;;;;;4985037;28;20038;-70
2022/01/28 03:06:20;;;;;;;19.45;10.75;;;;;;;;;;4977932;28;20037;-72
2022/01/28 03:08:57;;;;;;;13.98;9.73;;;;;;;;;;4978925;28;20452;-68
2022/01/28 03:16:38;;;;;;;17.23;10.65;;;;;;;;;;4981686;28;20042;-69
2022/01/28 03:19:17;;;;;;;20.00;11.68;;;;;;;;;;4987134;28;20025;-69
2022/01/28 03:21:53;;;;;;;17.05;9.57;;;;;;;;;;4980256;28;20026;-68
2022/01/28 03:24:19;;;;;;;15.25;9.15;;;;;;;;;;4987400;28;20030;-70
2022/01/28 03:26:49;;;;;;;15.85;9.15;;;;;;;;;;4981105;28;20031;-68
2022/01/28 03:29:15;;;;;;;12.07;9.07;;;;;;;;;;4986038;28;20037;-69
2022/01/28 03:31:41;;;;;;;12.30;8.23;;;;;;;;;;4984827;28;20033;-69
2022/01/28 03:34:07;;;;;;;16.63;9.15;;;;;;;;;;4978662;28;20073;-70
2022/01/28 03:36:33;;;;;;;13.48;8.80;;;;;;;;;;4978497;28;20500;-68
2022/01/28 03:39:00;;;;;;;13.93;9.43;;;;;;;;;;4984602;28;20022;-69
2022/01/28 03:41:26;;;;;;;10.98;7.43;;;;;;;;;;4999702;28;20034;-68
2022/01/28 03:43:58;;;;;;;11.07;6.78;;;;;;;;;;4986501;28;20042;-66
2022/01/28 03:46:25;;;;;;;9.90;6.60;;;;;;;;;;5003284;28;20033;-69
2022/01/28 03:48:52;;;;;;;9.40;6.00;;;;;;;;;;4981178;28;20035;-68
2022/01/28 03:51:18;;;;;;;9.35;5.32;;;;;;;;;;4983345;28;20432;-68
2022/01/28 03:53:44;;;;;;;6.55;4.90;;;;;;;;;;4985065;28;20034;-70
2022/01/28 03:56:10;;;;;;;5.97;4.32;;;;;;;;;;4981916;28;20034;-68
2022/01/28 03:58:36;;;;;;;8.75;4.55;;;;;;;;;;4983415;28;20035;-68
2022/01/28 04:01:08;;;;;;;5.57;4.47;;;;;;;;;;4977759;28;20038;-69
2022/01/28 04:13:55;;;;;;;7.50;4.13;;;;;;;;;;4986692;28;20037;-69
2022/01/28 04:16:32;;;;;;;5.70;4.57;;;;;;;;;;4984553;28;20149;-68
2022/01/28 04:19:01;;;;;;;6.65;4.75;;;;;;;;;;4984496;28;20022;-69
2022/01/28 04:21:29;;;;;;;10.93;5.07;;;;;;;;;;4985171;28;20026;-68
2022/01/28 04:23:55;;;;;;;9.75;4.40;;;;;;;;;;4984074;28;20063;-69
2022/01/28 04:26:21;;;;;;;7.88;4.85;;;;;;;;;;4983042;28;20041;-70
2022/01/28 04:28:47;;;;;;;8.20;5.30;;;;;;;;;;4983091;28;20113;-71
2022/01/28 04:31:13;;;;;;;6.25;5.05;;;;;;;;;;4983065;28;20417;-68
2022/01/28 04:33:39;;;;;;;6.57;5.00;;;;;;;;;;5003277;28;20022;-70
2022/01/28 04:36:07;;;;;;;7.07;4.72;;;;;;;;;;4980477;28;20023;-69
2022/01/28 04:38:51;;;;;;;5.05;4.28;;;;;;;;;;4976713;28;20393;-69
2022/01/28 04:44:16;;;;;;;7.00;4.10;;;;;;;;;;4991915;28;20405;-68
2022/01/28 04:46:50;;;;;;;6.40;4.68;;;;;;;;;;4983144;28;20050;-69
2022/01/28 04:49:24;;;;;;;5.40;4.28;;;;;;;;;;4986176;28;20026;-70
2022/01/28 04:52:25;;;;;;;6.70;4.93;;;;;;;;;;4999015;28;20039;-68
2022/01/28 05:00:00;;;;;;;7.45;4.80;;;;;;;;;;4979163;28;20039;-69
2022/01/28 05:02:44;;;;;;;;;;;;;;;;;;4981576;28;20062;-69
2022/01/28 05:16:03;;;;;;;5.82;4.38;;;;;;;;;;4980411;28;20760;-69
2022/01/28 05:26:53;;;;;;;6.13;4.55;;;;;;;;;;4983997;28;20050;-69
2022/01/28 05:29:19;;;;;;;5.95;4.32;;;;;;;;;;4996878;28;20031;-70
2022/01/28 05:31:46;;;;;;;10.38;5.00;;;;;;;;;;4986358;28;20625;-69
2022/01/28 05:34:13;;;;;;;7.65;4.35;;;;;;;;;;4980315;28;20022;-69
2022/01/28 05:36:39;;;;;;;7.65;4.55;;;;;;;;;;4991254;28;20026;-68
2022/01/28 05:39:05;;;;;;;4.97;4.47;;;;;;;;;;4999421;28;20029;-69
2022/01/28 05:41:32;;;;;;;5.00;4.00;;;;;;;;;;4982757;28;20057;-69
2022/01/28 05:44:00;;;;;;;6.75;3.70;;;;;;;;;;4982308;28;20092;-69
2022/01/28 05:46:28;;;;;;;3.67;3.13;;;;;;;;;;4996448;28;20615;-68
2022/01/28 05:48:55;;;;;;;5.22;3.50;;;;;;;;;;4990390;28;20046;-68
2022/01/28 05:51:21;;;;;;;4.88;3.10;;;;;;;;;;4983845;28;20034;-68
2022/01/28 05:53:47;;;;;;;5.80;3.38;;;;;;;;;;4982380;28;20038;-69
2022/01/28 05:56:14;;;;;;;6.43;3.20;;;;;;;;;;4987286;28;20472;-68
2022/01/28 05:58:40;;;;;;;4.30;3.05;;;;;;;;;;4985226;28;20033;-69
2022/01/28 06:01:06;;;;;;;3.53;2.67;;;;;;;;;;4985511;28;20033;-68
2022/01/28 06:03:32;;;;;;;6.78;3.50;;;;;;;;;;4990076;28;20034;-68
2022/01/28 06:05:58;;;;;;;4.97;3.33;;;;;;;;;;4980842;28;20534;-69
2022/01/28 06:08:24;;;;;;;4.28;2.75;;;;;;;;;;4991106;28;20049;-68
2022/01/28 06:10:50;;;;;;;6.22;3.50;;;;;;;;;;4987932;28;20045;-69
2022/01/28 06:13:16;;;;;;;6.40;3.17;;;;;;;;;;4982444;28;20096;-69
2022/01/28 06:15:43;;;;;;;7.85;3.22;;;;;;;;;;4986611;28;20111;-68
2022/01/28 06:18:09;;;;;;;4.93;3.63;;;;;;;;;;4983165;28;20443;-69
2022/01/28 06:20:35;;;;;;;4.15;3.15;;;;;;;;;;4985362;28;20378;-70
2022/01/28 06:23:01;;;;;;;6.90;3.17;;;;;;;;;;4981462;28;20058;-68
2022/01/28 06:25:27;;;;;;;5.97;3.20;;;;;;;;;;4985358;28;20038;-68
2022/01/28 06:27:54;;;;;;;5.88;3.75;;;;;;;;;;4987490;28;20030;-69
2022/01/28 06:30:21;;;;;;;7.53;3.67;;;;;;;;;;4985976;28;20030;-69
2022/01/28 06:32:47;;;;;;;5.75;3.53;;;;;;;;;;4978932;28;20031;-69
2022/01/28 06:35:13;;;;;;;5.05;3.25;;;;;;;;;;4983421;28;20027;-69
2022/01/28 06:37:42;;;;;;;7.25;3.42;;;;;;;;;;4981175;28;20381;-69
2022/01/28 06:40:09;;;;;;;7.65;3.85;;;;;;;;;;4989810;28;20485;-68
2022/01/28 06:42:35;;;;;;;5.05;3.85;;;;;;;;;;4982079;28;20042;-70
2022/01/28 06:45:01;;;;;;;10.05;5.43;;;;;;;;;;4983500;28;20062;-68
2022/01/28 06:47:28;;;;;;;5.82;4.43;;;;;;;;;;4984341;28;20062;-71
2022/01/28 06:49:54;;;;;;;6.03;3.70;;;;;;;;;;4997779;28;20030;-71
2022/01/28 06:52:20;;;;;;;8.85;4.57;;;;;;;;;;4987334;28;20028;-70
2022/01/28 06:54:46;;;;;;;5.38;4.35;;;;;;;;;;4986522;28;20032;-71
2022/01/28 06:57:12;;;;;;;7.55;3.97;;;;;;;;;;4985468;28;20110;-69
2022/01/28 06:59:38;;;;;;;5.95;4.13;;;;;;;;;;4984469;28;20023;-72
2022/01/28 07:02:04;;;;;;;7.80;4.57;;;;;;;;;;4984485;28;20086;-69
2022/01/28 07:04:30;;;;;;;10.88;4.60;;;;;;;;;;4990647;28;20029;-69
2022/01/28 07:06:56;;;;;;;6.70;4.35;;;;;;;;;;4982616;28;20050;-68
2022/01/28 07:09:22;;;;;;;10.32;3.83;;;;;;;;;;4979917;28;20437;-68
2022/01/28 07:11:49;;;;;;;9.35;4.70;;;;;;;;;;4986564;28;20118;-71
2022/01/28 07:14:15;;;;;;;10.85;4.60;;;;;;;;;;4979973;28;20389;-71
2022/01/28 07:16:41;;;;;;;8.27;4.50;;;;;;;;;;4979830;28;20027;-69
2022/01/28 07:19:08;;;;;;;7.35;4.13;;;;;;;;;;4986314;28;20394;-69
2022/01/28 07:21:35;;;;;;;6.20;4.10;;;;;;;;;;4983925;28;20442;-71
2022/01/28 07:24:01;;;;;;;9.48;5.45;;;;;;;;;;4980592;28;20036;-69
2022/01/28 07:26:27;;;;;;;10.18;4.97;;;;;;;;;;4983797;28;20041;-70
2022/01/28 07:28:53;;;;;;;10.27;4.70;;;;;;;;;;4985367;28;20442;-70
2022/01/28 07:31:19;;;;;;;9.82;5.20;;;;;;;;;;4980672;28;20023;-70
2022/01/28 07:33:46;;;;;;;10.48;5.22;;;;;;;;;;4985849;28;20033;-69
2022/01/28 07:36:12;;;;;;;12.23;4.78;;;;;;;;;;4984002;28;20057;-70
2022/01/28 07:38:38;;;;;;;8.88;5.07;;;;;;;;;;4978347;28;20537;-70
2022/01/28 07:41:05;;;;;;;8.85;4.63;;;;;;;;;;4986286;28;20246;-70
2022/01/28 07:43:33;;;;;;;6.55;4.18;;;;;;;;;;4990134;28;20114;-73
2022/01/28 07:45:59;;;;;;;10.77;5.07;;;;;;;;;;4978992;28;20478;-69
2022/01/28 07:48:25;;;;;;;11.90;5.63;;;;;;;;;;4986331;28;20451;-70
2022/01/28 07:50:51;;;;;;;8.70;4.57;;;;;;;;;;4988733;28;20084;-69
2022/01/28 07:53:18;;;;;;;7.95;4.78;;;;;;;;;;4984525;28;20118;-72
2022/01/28 07:55:44;;;;;;;9.30;5.18;;;;;;;;;;4980233;28;20487;-72
2022/01/28 07:58:10;;;;;;;10.00;5.30;;;;;;;;;;4984268;28;20031;-71
2022/01/28 08:00:37;;;;;;;7.93;5.57;;;;;;;;;;4978275;28;20058;-70
2022/01/28 08:03:03;;;;;;;9.52;5.18;;;;;;;;;;4980082;28;20029;-70
2022/01/28 08:05:29;;;;;;;9.80;5.03;;;;;;;;;;4980636;28;20381;-71
2022/01/28 08:07:55;;;;;;;9.38;5.10;;;;;;;;;;4984831;28;20049;-73
2022/01/28 08:10:21;;;;;;;8.93;4.63;;;;;;;;;;4974413;28;20801;-71
2022/01/28 08:12:48;;;;;;;9.25;4.78;;;;;;;;;;4976119;28;20034;-70
2022/01/28 08:15:15;;;;;;;8.13;4.60;;;;;;;;;;4978728;28;20527;-71
2022/01/28 08:17:41;;;;;;;10.05;5.30;;;;;;;;;;4997582;28;20104;-73
2022/01/28 08:20:08;;;;;;;10.40;5.00;;;;;;;;;;4977587;28;20027;-72
2022/01/28 08:22:43;;;;;;;9.85;4.65;;;;;;;;;;4999426;28;20030;-72
2022/01/28 08:25:09;;;;;;;9.10;4.75;;;;;;;;;;4997900;28;20034;-73
2022/01/28 08:27:35;;;;;;;5.80;4.40;;;;;;;;;;4982195;28;20026;-72
2022/01/28 08:30:01;;;;;;;9.13;4.88;;;;;;;;;;4982820;28;20031;-72
2022/01/28 08:32:27;;;;;;;13.40;5.93;;;;;;;;;;4993991;28;20027;-72
2022/01/28 08:34:54;;;;;;;10.02;4.47;;;;;;;;;;4975926;28;20065;-73
2022/01/28 08:37:20;;;;;;;9.07;5.25;;;;;;;;;;4980420;28;20401;-71
2022/01/28 08:39:46;;;;;;;12.30;6.22;;;;;;;;;;4981213;28;20033;-73
2022/01/28 08:42:14;;;;;;;10.43;5.60;;;;;;;;;;4979111;28;20496;-73
2022/01/28 08:44:41;;;;;;;9.70;5.25;;;;;;;;;;4977423;28;20042;-72
2022/01/28 08:47:07;;;;;;;11.20;5.15;;;;;;;;;;4987768;28;20424;-72
2022/01/28 08:49:33;;;;;;;9.48;4.78;;;;;;;;;;4987142;28;20022;-73
2022/01/28 08:52:00;;;;;;;8.35;4.53;;;;;;;;;;4993785;28;20083;-73
2022/01/28 08:54:26;;;;;;;10.75;5.65;;;;;;;;;;4979382;28;20030;-73
2022/01/28 08:56:52;;;;;;;6.90;4.53;;;;;;;;;;4976839;28;20034;-72
2022/01/28 08:59:18;;;;;;;10.48;5.30;;;;;;;;;;4977575;28;20049;-72
2022/01/28 09:01:44;;;;;;;9.25;5.18;;;;;;;;;;4979446;28;20111;-73
2022/01/28 09:04:10;;;;;;;8.40;4.22;;;;;;;;;;4979747;28;20697;-72
2022/01/28 09:06:36;;;;;;;11.88;5.00;;;;;;;;;;4980368;28;20100;-72
2022/01/28 09:09:04;;;;;;;12.68;5.10;;;;;;;;;;4980670;28;20047;-72
2022/01/28 09:11:45;;;;;;;8.48;4.85;;;;;;;;;;4982732;28;20045;-72
2022/01/28 09:14:12;;;;;;;9.07;4.30;;;;;;;;;;4985977;28;22599;-73
2022/01/28 09:16:38;;;;;;;12.02;5.38;;;;;;;;;;4982858;28;20084;-73
2022/01/28 09:19:04;;;;;;;9.90;4.97;;;;;;;;;;4982801;28;20023;-73
2022/01/28 09:21:30;;;;;;;8.30;4.88;;;;;;;;;;4981551;28;20038;-71
2022/01/28 09:23:56;;;;;;;9.75;5.07;;;;;;;;;;4980982;28;20763;-72
2022/01/28 09:26:22;;;;;;;9.43;5.32;;;;;;;;;;4985250;28;20180;-72
2022/01/28 09:28:48;;;;;;;7.32;4.90;;;;;;;;;;4980970;28;20497;-73
2022/01/28 09:31:15;;;;;;;7.75;4.13;;;;;;;;;;4987666;28;20043;-71
2022/01/28 09:33:41;;;;;;;10.80;4.35;;;;;;;;;;4983779;28;20480;-73
2022/01/28 09:36:07;;;;;;;11.70;5.50;;;;;;;;;;4983344;28;20033;-73
2022/01/28 09:38:34;;;;;;;10.50;4.72;;;;;;;;;;4982962;28;20443;-74
2022/01/28 09:41:01;;;;;;;9.05;4.50;;;;;;;;;;4984950;28;20711;-73
2022/01/28 09:43:28;;;;;;;8.57;4.57;;;;;;;;;;4984024;28;20453;-74
2022/01/28 09:45:54;;;;;;;6.18;4.07;;;;;;;;;;4985255;28;20058;-72
2022/01/28 09:48:22;;;;;;;8.73;4.18;;;;;;;;;;4982653;28;20154;-70
2022/01/28 09:50:48;;;;;;;10.45;4.95;;;;;;;;;;4982678;28;20030;-73
2022/01/28 09:53:15;;;;;;;8.18;4.85;;;;;;;;;;4982025;28;20035;-70
2022/01/28 09:55:45;;;;;;;8.30;4.30;;;;;;;;;;4984327;28;20034;-73
2022/01/28 09:58:11;;;;;;;9.23;4.10;;;;;;;;;;4982517;28;20018;-71
2022/01/28 10:00:37;;;;;;;8.48;4.88;;;;;;;;;;4983279;28;20030;-73
2022/01/28 10:03:04;;;;;;;8.45;4.72;;;;;;;;;;4985031;28;20073;-74
2022/01/28 10:05:30;;;;;;;5.78;3.95;;;;;;;;;;4982996;28;20045;-73
2022/01/28 10:08:06;;;;;;;8.07;4.25;;;;;;;;;;4984228;28;20043;-74
2022/01/28 10:10:47;;;;;;;8.13;4.43;;;;;;;;;;4979828;28;20029;-74
2022/01/28 10:13:17;;;;;;;7.20;3.85;;;;;;;;;;4982630;28;20120;-72
2022/01/28 10:15:53;;;;;;;8.45;4.03;;;;;;;;;;4980368;28;20096;-74
2022/01/28 10:18:20;;;;;;;7.15;3.80;;;;;;;;;;4984996;28;20041;-73
2022/01/28 10:20:46;;;;;;;7.25;3.97;;;;;;;;;;4981378;28;20038;-74
2022/01/28 10:23:13;;;;;;;6.65;4.13;;;;;;;;;;4981691;28;20444;-70
2022/01/28 10:25:42;;;;;;;4.65;3.55;;;;;;;;;;4979991;28;20493;-73
2022/01/28 10:28:09;;;;;;;7.60;3.88;;;;;;;;;;4998457;28;20470;-74
2022/01/28 10:30:37;;;;;;;8.20;4.20;;;;;;;;;;4982591;28;20030;-73
2022/01/28 10:33:14;;;;;;;6.40;3.65;;;;;;;;;;4982320;28;20054;-72
2022/01/28 10:35:48;;;;;;;7.07;3.83;;;;;;;;;;4982313;28;20189;-71
2022/01/28 10:38:27;;;;;;;8.45;3.85;;;;;;;;;;4982416;28;20026;-72
2022/01/28 10:41:15;;;;;;;7.88;3.63;;;;;;;;;;4984181;28;20058;-73
2022/01/28 10:43:42;;;;;;;5.00;3.13;;;;;;;;;;4982944;28;20062;-72
2022/01/28 10:46:08;;;;;;;6.00;3.88;;;;;;;;;;4981754;28;20041;-73
2022/01/28 10:48:47;;;;;;;6.25;3.30;;;;;;;;;;4985495;28;20027;-73
2022/01/28 10:51:13;;;;;;;6.75;3.28;;;;;;;;;;4978956;28;20061;-74
2022/01/28 10:53:39;;;;;;;6.72;3.15;;;;;;;;;;4982361;28;20026;-74
2022/01/28 10:56:11;;;;;;;5.20;3.00;;;;;;;;;;4981896;28;20050;-73
2022/01/28 10:58:38;;;;;;;3.42;2.85;;;;;;;;;;4982679;28;20026;-73
2022/01/28 11:01:05;;;;;;;4.32;3.13;;;;;;;;;;4985156;28;20068;-72
2022/01/28 11:03:31;;;;;;;5.82;3.05;;;;;;;;;;4982876;28;20093;-73
2022/01/28 11:05:59;;;;;;;7.47;3.50;;;;;;;;;;4984235;28;20098;-72
2022/01/28 11:08:32;;;;;;;5.07;2.88;;;;;;;;;;4981963;28;20046;-72
2022/01/28 11:10:58;;;;;;;4.05;3.05;;;;;;;;;;4999731;28;20044;-72
2022/01/28 11:13:24;;;;;;;5.03;2.70;;;;;;;;;;4984309;28;20042;-73
2022/01/28 11:15:50;;;;;;;4.40;3.30;;;;;;;;;;4984336;28;20420;-74
2022/01/28 11:18:17;;;;;;;5.40;3.05;;;;;;;;;;4982518;28;20105;-73
2022/01/28 11:20:58;;;;;;;6.65;3.65;;;;;;;;;;4986254;28;20030;-73
2022/01/28 11:23:27;;;;;;;7.25;3.90;;;;;;;;;;4982727;28;20030;-73
2022/01/28 11:26:12;;;;;;;5.82;3.47;;;;;;;;;;4979587;28;20041;-73
2022/01/28 11:28:41;;;;;;;4.47;3.05;;;;;;;;;;4981866;28;20041;-73
2022/01/28 11:31:07;;;;;;;5.93;3.13;;;;;;;;;;4991773;28;20034;-73
2022/01/28 11:33:50;;;;;;;3.75;2.92;;;;;;;;;;4986206;28;20114;-74
2022/01/28 11:36:33;;;;;;;4.95;2.80;;;;;;;;;;4980873;28;20027;-74
2022/01/28 11:39:07;;;;;;;3.78;2.30;;;;;;;;;;4978687;28;20030;-73
2022/01/28 11:41:33;;;;;;;4.38;2.88;;;;;;;;;;4984249;28;20398;-73
2022/01/28 11:43:59;;;;;;;3.58;2.67;;;;;;;;;;4979279;28;20038;-73
2022/01/28 11:46:31;;;;;;;3.85;2.38;;;;;;;;;;4981146;28;20731;-74
2022/01/28 11:48:58;;;;;;;4.90;2.70;;;;;;;;;;4980170;28;20029;-73
2022/01/28 11:51:25;;;;;;;6.65;2.95;;;;;;;;;;4983010;28;20033;-75
2022/01/28 11:53:56;;;;;;;3.50;2.60;;;;;;;;;;4981072;28;20038;-74
2022/01/28 11:56:24;;;;;;;3.40;2.70;;;;;;;;;;4980697;28;20033;-74
2022/01/28 11:59:10;;;;;;;4.15;2.70;;;;;;;;;;4995833;28;20033;-72
2022/01/28 12:01:35;;;;;;;;;;;;;;;;;;4980330;28;20043;-72
2022/01/28 12:04:01;;;;;;;;;;;;;;;;;;4998411;28;19918;-73
2022/01/28 12:06:27;;;;;;;;;;;;;;;;;;4981854;28;19914;-73
2022/01/28 12:08:54;;;;;;;4.20;3.13;;;;;;;;;;4983506;28;19924;-73
2022/01/28 12:11:40;;;;;;;4.40;2.85;;;;;;;;;;4981619;28;20049;-72
2022/01/28 12:14:11;;;;;;;4.40;2.97;;;;;;;;;;4986124;28;20037;-74
2022/01/28 12:16:41;;;;;;;4.40;2.72;;;;;;;;;;4976818;28;20439;-72
2022/01/28 12:19:18;;;;;;;4.00;2.90;;;;;;;;;;4979652;28;20026;-72
2022/01/28 12:22:08;;;;;;;4.32;2.80;;;;;;;;;;4982111;28;20026;-73
2022/01/28 12:24:35;;;;;;;5.45;2.83;;;;;;;;;;4980112;28;21227;-74
2022/01/28 12:27:01;;;;;;;4.30;2.47;;;;;;;;;;4980782;28;20041;-73
2022/01/28 12:29:34;;;;;;;4.43;3.25;;;;;;;;;;4996256;28;20033;-73
2022/01/28 12:32:00;;;;;;;3.20;2.50;;;;;;;;;;4979867;28;20026;-74
2022/01/28 12:34:27;;;;;;;4.88;2.53;;;;;;;;;;4979044;28;20034;-73
2022/01/28 12:36:56;;;;;;;5.78;2.78;;;;;;;;;;4978346;28;20038;-73
2022/01/28 12:39:35;;;;;;;4.43;2.90;;;;;;;;;;4985158;28;20022;-72
2022/01/28 12:42:09;;;;;;;4.18;2.47;;;;;;;;;;4983463;28;20709;-73
2022/01/28 12:44:37;;;;;;;4.78;2.60;;;;;;;;;;4979077;28;20493;-72
2022/01/28 12:47:05;;;;;;;2.63;2.30;;;;;;;;;;4980812;28;20045;-74
2022/01/28 12:49:33;;;;;;;3.45;2.65;;;;;;;;;;4993591;28;20031;-73
2022/01/28 12:52:04;;;;;;;4.18;2.83;;;;;;;;;;4999664;28;20516;-74
2022/01/28 12:54:34;;;;;;;3.50;2.90;;;;;;;;;;4986916;28;20038;-73
2022/01/28 12:57:00;;;;;;;5.43;3.17;;;;;;;;;;4980285;28;20524;-72
2022/01/28 12:59:26;;;;;;;7.15;3.63;;;;;;;;;;4982645;28;20575;-73
2022/01/28 13:01:53;;;;;;;4.07;3.15;;;;;;;;;;4990886;28;20031;-73
2022/01/28 13:04:22;;;;;;;5.07;3.08;;;;;;;;;;4979304;28;20031;-73
2022/01/28 13:09:16;;;;;;;5.18;2.75;;;;;;;;;;4981599;28;20066;-73
2022/01/28 13:11:43;;;;;;;4.05;2.85;;;;;;;;;;4980783;28;20034;-73
2022/01/28 13:14:10;;;;;;;5.10;3.40;;;;;;;;;;4985226;28;20038;-73
2022/01/28 13:16:37;;;;;;;2.95;2.63;;;;;;;;;;4976244;28;20400;-73
2022/01/28 13:19:05;;;;;;;3.65;2.70;;;;;;;;;;4996979;28;20022;-74
2022/01/28 13:21:32;;;;;;;2.88;2.55;;;;;;;;;;4984714;28;20046;-74
2022/01/28 13:24:05;;;;;;;3.53;2.53;;;;;;;;;;4985320;28;20026;-73
2022/01/28 13:26:34;;;;;;;2.55;2.35;;;;;;;;;;4981118;28;20481;-72
2022/01/28 13:29:07;;;;;;;3.90;2.70;;;;;;;;;;4981460;28;20113;-73
2022/01/28 13:31:36;;;;;;;3.55;2.63;;;;;;;;;;4978339;28;20030;-71
2022/01/28 13:34:05;;;;;;;3.28;2.30;;;;;;;;;;4979647;28;20460;-72
2022/01/28 13:36:48;;;;;;;3.17;2.35;;;;;;;;;;4980712;28;20034;-71
2022/01/28 13:39:18;;;;;;;2.45;2.20;;;;;;;;;;4983346;28;20480;-72
2022/01/28 13:41:47;;;;;;;3.38;2.83;;;;;;;;;;4994415;28;20665;-71
2022/01/28 13:44:23;;;;;;;3.20;2.60;;;;;;;;;;4984696;28;20038;-72
2022/01/28 13:47:00;;;;;;;4.72;2.63;;;;;;;;;;4982757;28;20585;-72
2022/01/28 13:49:34;;;;;;;2.88;2.40;;;;;;;;;;4984600;28;20026;-73
2022/01/28 13:52:10;;;;;;;3.08;2.20;;;;;;;;;;4986079;28;20030;-72
2022/01/28 13:54:36;;;;;;;3.13;2.22;;;;;;;;;;4983828;28;20038;-73
2022/01/28 13:57:04;;;;;;;2.40;2.20;;;;;;;;;;4982729;28;20026;-71
2022/01/28 13:59:31;;;;;;;2.80;2.10;;;;;;;;;;4982772;28;20478;-73
2022/01/28 14:01:59;;;;;;;4.20;2.40;;;;;;;;;;4992232;28;20038;-74
2022/01/28 14:04:44;;;;;;;2.58;2.00;;;;;;;;;;4993167;28;20022;-73
2022/01/28 14:07:11;;;;;;;2.33;2.03;;;;;;;;;;4991377;28;20607;-75
2022/01/28 14:09:45;;;;;;;2.05;1.83;;;;;;;;;;4993332;28;20369;-73
2022/01/28 14:12:22;;;;;;;2.50;1.90;;;;;;;;;;5003599;28;20068;-74
2022/01/28 14:14:48;;;;;;;2.88;2.00;;;;;;;;;;4990467;28;20021;-74
2022/01/28 14:17:14;;;;;;;3.55;3.25;;;;;;;;;;4987691;28;20034;-73
2022/01/28 14:19:41;;;;;;;2.88;2.53;;;;;;;;;;4992905;28;20035;-73
2022/01/28 14:22:08;;;;;;;2.50;2.10;;;;;;;;;;4991299;28;20022;-73
2022/01/28 14:24:39;;;;;;;2.22;2.03;;;;;;;;;;4991614;28;20014;-73
2022/01/28 14:32:07;;;;;;;2.03;1.83;;;;;;;;;;4984396;28;20489;-72
2022/01/28 14:34:34;;;;;;;2.25;1.90;;;;;;;;;;4983471;28;20027;-72
2022/01/28 14:37:02;;;;;;;2.53;1.90;;;;;;;;;;4985709;28;20026;-73
2022/01/28 14:39:28;;;;;;;2.50;2.03;;;;;;;;;;4982066;28;20038;-73
2022/01/28 14:41:56;;;;;;;2.58;2.15;;;;;;;;;;4982724;28;20376;-72
2022/01/28 14:44:22;;;;;;;2.53;2.10;;;;;;;;;;4982171;28;20161;-73
2022/01/28 14:46:49;;;;;;;2.22;2.00;;;;;;;;;;4983844;28;20508;-72
2022/01/28 14:49:15;;;;;;;2.53;2.00;;;;;;;;;;4982987;28;20136;-72
2022/01/28 14:51:42;;;;;;;2.40;2.00;;;;;;;;;;4983051;28;20031;-70
2022/01/28 14:54:08;;;;;;;3.50;2.00;;;;;;;;;;4986835;28;20026;-73
2022/01/28 14:56:35;;;;;;;3.08;2.25;;;;;;;;;;4987640;28;20033;-71
2022/01/28 14:59:02;;;;;;;2.67;2.20;;;;;;;;;;4986526;28;20129;-70
2022/01/28 15:01:29;;;;;;;2.25;1.90;;;;;;;;;;4983426;28;20033;-73
2022/01/28 15:03:55;;;;;;;3.05;2.13;;;;;;;;;;4979948;28;20026;-70
2022/01/28 15:06:24;;;;;;;3.55;2.10;;;;;;;;;;4985522;28;20034;-71
2022/01/28 15:08:51;;;;;;;1.92;1.73;;;;;;;;;;4995226;28;20050;-71
2022/01/28 15:11:32;;;;;;;2.08;1.80;;;;;;;;;;4981838;28;20084;-71
2022/01/28 15:13:58;;;;;;;2.63;1.98;;;;;;;;;;4983573;28;20354;-72
2022/01/28 15:16:24;;;;;;;2.70;2.40;;;;;;;;;;4983375;28;20050;-71
2022/01/28 15:18:50;;;;;;;2.33;2.00;;;;;;;;;;4983474;28;20030;-70
2022/01/28 15:21:16;;;;;;;2.55;2.05;;;;;;;;;;4983093;28;20492;-70
2022/01/28 15:23:42;;;;;;;1.98;1.70;;;;;;;;;;4981644;28;20519;-70
2022/01/28 15:26:09;;;;;;;2.33;1.98;;;;;;;;;;4981852;28;20100;-71
2022/01/28 15:28:50;;;;;;;1.60;1.50;;;;;;;;;;4981154;28;20097;-71
2022/01/28 15:34:20;;;;;;;1.88;1.63;;;;;;;;;;4983498;28;20046;-69
2022/01/28 15:36:47;;;;;;;2.00;1.75;;;;;;;;;;4982967;28;20038;-70
2022/01/28 15:39:13;;;;;;;3.92;2.40;;;;;;;;;;4982807;28;20477;-72
2022/01/28 15:41:39;;;;;;;4.25;3.10;;;;;;;;;;4982047;28;20077;-71
2022/01/28 15:44:05;;;;;;;3.83;2.83;;;;;;;;;;4979512;28;20116;-72
2022/01/28 15:46:31;;;;;;;4.75;3.13;;;;;;;;;;4981102;28;20467;-71
2022/01/28 15:48:58;;;;;;;5.78;3.42;;;;;;;;;;4981276;28;20034;-71
2022/01/28 15:51:24;;;;;;;6.35;3.70;;;;;;;;;;4981175;28;20054;-71
2022/01/28 15:53:50;;;;;;;4.25;3.17;;;;;;;;;;4982886;28;20166;-70
2022/01/28 15:56:18;;;;;;;3.53;2.85;;;;;;;;;;4984238;28;20026;-70
2022/01/28 15:58:44;;;;;;;3.65;2.63;;;;;;;;;;4981705;28;20019;-70
2022/01/28 16:01:10;;;;;;;3.22;2.25;;;;;;;;;;4984936;28;20041;-72
2022/01/28 16:03:36;;;;;;;4.03;2.05;;;;;;;;;;4979535;28;20573;-71
2022/01/28 16:06:02;;;;;;;1.85;1.67;;;;;;;;;;4985500;28;20034;-69
2022/01/28 16:08:29;;;;;;;4.68;2.78;;;;;;;;;;4986497;28;20049;-73